createdAt,value
2023-04-04T00:00:35.511Z,2.70
2023-04-04T00:03:02.991Z,3.00
2023-04-04T00:05:30.539Z,3.00
2023-04-04T00:07:57.902Z,3.57
2023-04-04T00:10:25.464Z,3.17
2023-04-04T00:12:52.821Z,2.57
2023-04-04T00:15:20.195Z,2.63
2023-04-04T00:17:47.604Z,3.13
2023-04-04T00:20:14.996Z,2.63
2023-04-04T00:22:42.412Z,2.30
2023-04-04T00:25:10.757Z,2.33
2023-04-04T00:27:38.160Z,2.47
2023-04-04T00:30:05.896Z,2.17
2023-04-04T00:32:33.387Z,2.57
2023-04-04T00:35:00.829Z,2.50
2023-04-04T00:37:28.229Z,2.23
2023-04-04T00:39:56.043Z,2.53
2023-04-04T00:42:23.493Z,2.00
2023-04-04T00:44:52.104Z,2.23
2023-04-04T00:47:21.394Z,2.43
2023-04-04T00:49:48.727Z,2.27
2023-04-04T00:52:16.118Z,2.57
2023-04-04T00:54:43.493Z,2.30
2023-04-04T00:57:11.039Z,2.60
2023-04-04T00:59:38.624Z,2.33
2023-04-04T01:02:06.148Z,2.30
2023-04-04T01:04:33.621Z,2.23
2023-04-04T01:07:01.422Z,2.30
2023-04-04T01:09:28.964Z,2.53
2023-04-04T01:11:57.094Z,2.67
2023-04-04T01:14:24.540Z,3.00
2023-04-04T01:16:52.333Z,2.20
2023-04-04T01:19:26.975Z,3.03
2023-04-04T01:21:54.346Z,3.13
2023-04-04T01:24:22.415Z,2.20
2023-04-04T01:26:51.340Z,2.50
2023-04-04T01:29:18.712Z,2.60
2023-04-04T01:31:47.546Z,2.77
2023-04-04T01:34:19.122Z,2.57
2023-04-04T01:37:03.012Z,2.97
2023-04-04T01:39:37.989Z,2.30
2023-04-04T01:42:06.017Z,2.97
2023-04-04T01:44:33.463Z,3.10
2023-04-04T01:47:01.543Z,2.60
2023-04-04T01:49:29.684Z,2.90
2023-04-04T01:51:57.061Z,2.40
2023-04-04T01:54:24.441Z,2.73
2023-04-04T01:56:52.933Z,3.07
2023-04-04T01:59:20.534Z,2.57
2023-04-04T02:01:48.043Z,3.00
2023-04-04T02:04:15.485Z,3.40
2023-04-04T02:06:42.933Z,3.37
2023-04-04T02:09:10.305Z,3.37
2023-04-04T02:11:39.637Z,3.07
2023-04-04T02:14:06.989Z,3.47
2023-04-04T02:16:34.446Z,3.27
2023-04-04T02:19:02.560Z,3.37
2023-04-04T02:21:29.994Z,3.07
2023-04-04T02:23:57.289Z,3.43
2023-04-04T02:26:24.659Z,3.13
2023-04-04T02:28:52.056Z,3.30
2023-04-04T02:31:19.452Z,3.00
2023-04-04T02:33:46.801Z,3.23
2023-04-04T02:36:14.181Z,3.63
2023-04-04T02:38:41.836Z,3.97
2023-04-04T02:41:09.165Z,3.00
2023-04-04T02:43:36.518Z,3.97
2023-04-04T02:46:14.475Z,4.20
2023-04-04T02:48:32.958Z,3.73
2023-04-04T02:51:00.373Z,3.37
2023-04-04T02:53:28.026Z,4.30
2023-04-04T02:55:55.377Z,3.10
2023-04-04T02:58:22.758Z,4.10
2023-04-04T03:00:56.618Z,3.10
2023-04-04T03:03:24.303Z,3.40
2023-04-04T03:05:51.993Z,3.27
2023-04-04T03:08:19.460Z,3.47
2023-04-04T03:10:47.112Z,3.80
2023-04-04T03:13:14.497Z,4.10
2023-04-04T03:15:41.890Z,3.57
2023-04-04T03:18:09.272Z,3.90
2023-04-04T03:20:37.005Z,4.23
2023-04-04T03:23:04.381Z,4.43
2023-04-04T03:25:31.777Z,3.80
2023-04-04T03:27:59.082Z,4.40
2023-04-04T03:30:26.862Z,4.00
2023-04-04T03:32:55.199Z,3.80
2023-04-04T03:35:22.681Z,4.37
2023-04-04T03:37:50.186Z,5.40
2023-04-04T03:40:17.776Z,4.77
2023-04-04T03:42:45.575Z,4.40
2023-04-04T03:45:12.958Z,5.07
2023-04-04T03:47:40.420Z,4.70
2023-04-04T03:50:08.016Z,4.60
2023-04-04T03:52:36.991Z,4.90
2023-04-04T03:55:04.428Z,4.03
2023-04-04T03:57:32.541Z,4.43
2023-04-04T03:59:59.935Z,4.40
2023-04-04T04:02:27.446Z,4.27
2023-04-04T04:04:54.901Z,4.37
2023-04-04T04:07:22.331Z,4.70
2023-04-04T04:09:49.889Z,4.83
2023-04-04T04:12:17.267Z,4.67
2023-04-04T04:14:44.661Z,4.90
2023-04-04T04:17:11.980Z,4.13
2023-04-04T04:19:39.335Z,5.13
2023-04-04T04:22:06.760Z,4.00
2023-04-04T04:24:34.094Z,5.13
2023-04-04T04:27:01.500Z,4.70
2023-04-04T04:29:30.171Z,5.57
2023-04-04T04:31:57.919Z,4.20
2023-04-04T04:34:27.318Z,4.60
2023-04-04T04:36:54.732Z,5.60
2023-04-04T04:39:22.049Z,4.90
2023-04-04T04:41:50.124Z,4.97
2023-04-04T04:44:17.495Z,5.13
2023-04-04T04:46:44.920Z,4.90
2023-04-04T04:49:12.361Z,4.83
2023-04-04T04:51:40.234Z,4.70
2023-04-04T04:54:07.607Z,4.73
2023-04-04T04:56:34.985Z,4.60
2023-04-04T04:59:02.323Z,4.70
2023-04-04T05:01:29.734Z,5.17
2023-04-04T05:03:57.131Z,4.83
2023-04-04T05:06:24.508Z,4.50
2023-04-04T05:08:51.845Z,5.13
2023-04-04T05:11:19.230Z,4.80
2023-04-04T05:13:46.934Z,5.20
2023-04-04T05:16:14.316Z,4.23
2023-04-04T05:18:41.676Z,4.37
2023-04-04T05:21:09.117Z,4.00
2023-04-04T05:23:36.577Z,4.50
2023-04-04T05:26:04.177Z,4.27
2023-04-04T05:28:31.668Z,4.17
2023-04-04T05:30:58.970Z,4.30
2023-04-04T05:33:26.337Z,4.10
2023-04-04T05:35:53.794Z,4.37
2023-04-04T05:38:21.302Z,4.70
2023-04-04T05:40:48.677Z,3.73
2023-04-04T05:43:16.039Z,4.27
2023-04-04T05:45:43.431Z,3.43
2023-04-04T05:48:10.880Z,3.47
2023-04-04T05:50:38.486Z,4.00
2023-04-04T05:53:06.054Z,4.00
2023-04-04T05:55:33.483Z,3.43
2023-04-04T05:58:01.251Z,4.57
2023-04-04T06:00:29.605Z,4.00
2023-04-04T06:02:58.520Z,3.57
2023-04-04T06:05:25.899Z,4.23
2023-04-04T06:07:53.272Z,3.97
2023-04-04T06:10:20.670Z,3.70
2023-04-04T06:12:48.053Z,4.33
2023-04-04T06:15:15.432Z,3.30
2023-04-04T06:17:42.827Z,3.50
2023-04-04T06:20:10.488Z,3.83
2023-04-04T06:22:37.841Z,3.90
2023-04-04T06:25:05.410Z,3.03
2023-04-04T06:27:32.728Z,4.23
2023-04-04T06:30:00.137Z,3.80
2023-04-04T06:32:28.007Z,3.90
2023-04-04T06:34:55.439Z,3.80
2023-04-04T06:37:22.817Z,3.97
2023-04-04T06:39:50.178Z,3.27
2023-04-04T06:42:17.830Z,3.70
2023-04-04T06:44:45.125Z,3.87
2023-04-04T06:47:12.493Z,3.97
2023-04-04T06:49:39.816Z,3.50
2023-04-04T06:52:07.182Z,3.10
2023-04-04T06:54:34.548Z,4.50
2023-04-04T06:57:01.851Z,3.50
2023-04-04T06:59:29.248Z,2.90
2023-04-04T07:01:57.933Z,2.97
2023-04-04T07:04:25.841Z,2.93
2023-04-04T07:06:53.216Z,2.80
2023-04-04T07:09:28.827Z,2.33
2023-04-04T07:11:49.552Z,2.97
2023-04-04T07:14:16.947Z,2.30
2023-04-04T07:16:44.340Z,2.70
2023-04-04T07:19:11.703Z,2.80
2023-04-04T07:21:39.450Z,2.63
2023-04-04T07:24:07.882Z,2.60
2023-04-04T07:26:35.332Z,2.47
2023-04-04T07:29:02.849Z,2.30
2023-04-04T07:31:30.250Z,2.83
2023-04-04T07:33:57.595Z,4.90
2023-04-04T07:36:24.951Z,4.67
2023-04-04T07:38:52.587Z,2.80
2023-04-04T07:41:21.414Z,3.77
2023-04-04T07:43:49.734Z,2.80
2023-04-04T07:46:17.729Z,3.20
2023-04-04T07:48:45.138Z,3.40
2023-04-04T07:51:12.468Z,4.30
2023-04-04T07:53:39.805Z,5.23
2023-04-04T07:56:07.178Z,2.90
2023-04-04T07:58:35.283Z,2.80
2023-04-04T08:01:03.390Z,3.23
2023-04-04T08:03:31.260Z,2.23
2023-04-04T08:05:58.731Z,2.70
2023-04-04T08:08:27.213Z,2.87
2023-04-04T08:10:54.586Z,5.27
2023-04-04T08:13:22.160Z,3.97
2023-04-04T08:15:49.553Z,2.80
2023-04-04T08:18:16.998Z,2.63
2023-04-04T08:20:44.831Z,3.00
2023-04-04T08:23:12.638Z,2.53
2023-04-04T08:25:40.012Z,3.03
2023-04-04T08:28:07.400Z,2.43
2023-04-04T08:30:34.750Z,3.93
2023-04-04T08:33:03.323Z,3.20
2023-04-04T08:35:31.060Z,2.73
2023-04-04T08:37:58.386Z,3.27
2023-04-04T08:40:25.916Z,3.63
2023-04-04T08:42:53.805Z,2.97
2023-04-04T08:45:22.095Z,3.23
2023-04-04T08:47:53.293Z,3.30
2023-04-04T08:50:21.226Z,2.53
2023-04-04T08:52:49.031Z,2.70
2023-04-04T08:55:16.441Z,2.60
2023-04-04T08:57:43.810Z,2.87
2023-04-04T09:00:11.581Z,2.47
2023-04-04T09:02:53.076Z,2.30
2023-04-04T09:05:20.798Z,2.73
2023-04-04T09:07:48.370Z,2.73
2023-04-04T09:10:15.744Z,2.70
2023-04-04T09:12:44.782Z,2.70
2023-04-04T09:15:12.312Z,2.50
2023-04-04T09:17:40.024Z,2.80
2023-04-04T09:20:25.537Z,2.63
2023-04-04T09:22:52.866Z,2.33
2023-04-04T09:25:20.225Z,2.50
2023-04-04T09:27:49.454Z,2.47
2023-04-04T09:30:16.829Z,2.50
2023-04-04T09:32:44.730Z,2.33
2023-04-04T09:35:14.164Z,2.00
2023-04-04T09:37:41.549Z,2.30
2023-04-04T09:40:10.500Z,2.47
2023-04-04T09:42:37.950Z,2.70
2023-04-04T09:45:05.697Z,2.10
2023-04-04T09:47:33.470Z,2.53
2023-04-04T09:50:01.697Z,2.50
2023-04-04T09:52:31.229Z,2.40
2023-04-04T09:54:59.365Z,2.37
2023-04-04T09:57:30.802Z,2.77
2023-04-04T10:00:02.391Z,2.80
2023-04-04T10:02:32.541Z,2.40
2023-04-04T10:07:29.792Z,2.60
2023-04-04T10:09:57.297Z,2.60
2023-04-04T10:12:27.732Z,2.57
2023-04-04T10:14:58.164Z,2.80
2023-04-04T10:17:27.120Z,2.73
2023-04-04T10:19:54.805Z,2.53
2023-04-04T10:22:23.465Z,2.60
2023-04-04T10:24:50.817Z,2.80
2023-04-04T10:27:18.212Z,2.40
2023-04-04T10:29:45.751Z,2.57
2023-04-04T10:32:14.645Z,2.57
2023-04-04T10:34:43.962Z,2.87
2023-04-04T10:37:16.348Z,2.60
2023-04-04T10:39:54.289Z,2.70
2023-04-04T10:42:21.657Z,2.53
2023-04-04T10:44:49.022Z,2.90
2023-04-04T10:47:25.797Z,2.60
2023-04-04T10:49:53.196Z,2.87
2023-04-04T10:52:21.993Z,2.70
2023-04-04T10:54:56.779Z,2.73
2023-04-04T10:57:24.625Z,3.23
2023-04-04T11:00:04.281Z,3.13
2023-04-04T11:02:47.068Z,4.00
2023-04-04T11:05:24.990Z,3.63
2023-04-04T11:10:30.442Z,2.50
2023-04-04T11:13:11.748Z,2.80
2023-04-04T11:15:30.632Z,3.83
2023-04-04T11:17:59.917Z,3.10
2023-04-04T11:20:31.562Z,3.07
2023-04-04T11:23:05.814Z,2.50
2023-04-04T11:25:34.608Z,2.40
2023-04-04T11:28:06.708Z,2.60
2023-04-04T11:30:49.917Z,2.87
2023-04-04T11:33:28.381Z,3.13
2023-04-04T11:35:57.773Z,2.70
2023-04-04T11:38:26.682Z,2.53
2023-04-04T11:40:54.864Z,2.60
2023-04-04T11:43:22.224Z,2.87
2023-04-04T11:45:50.600Z,2.40
2023-04-04T11:48:19.646Z,3.67
2023-04-04T11:50:51.143Z,2.90
2023-04-04T11:53:18.445Z,2.60
2023-04-04T11:55:47.448Z,2.53
2023-04-04T11:58:16.343Z,3.20
2023-04-04T12:00:44.226Z,2.77
2023-04-04T12:03:12.773Z,2.13
2023-04-04T12:05:44.337Z,2.60
2023-04-04T12:08:12.319Z,2.77
2023-04-04T12:10:40.778Z,2.70
2023-04-04T12:13:09.278Z,2.63
2023-04-04T12:15:37.682Z,2.57
2023-04-04T12:18:09.132Z,2.30
2023-04-04T12:20:41.395Z,2.97
2023-04-04T12:23:09.410Z,2.80
2023-04-04T12:25:39.738Z,2.73
2023-04-04T12:28:07.848Z,2.37
2023-04-04T12:30:35.294Z,2.90
2023-04-04T12:33:02.842Z,2.50
2023-04-04T12:35:31.250Z,2.90
2023-04-04T12:38:00.631Z,2.70
2023-04-04T12:40:36.266Z,2.60
2023-04-04T12:43:07.837Z,2.87
2023-04-04T12:45:38.910Z,2.67
2023-04-04T12:48:13.837Z,2.70
2023-04-04T12:50:57.676Z,2.70
2023-04-04T12:53:29.541Z,2.50
2023-04-04T12:55:56.844Z,2.40
2023-04-04T12:58:25.864Z,2.40
2023-04-04T13:00:54.538Z,2.43
2023-04-04T13:03:24.322Z,2.60
2023-04-04T13:05:54.912Z,2.40
2023-04-04T13:08:22.350Z,2.20
2023-04-04T13:10:59.395Z,2.70
2023-04-04T13:13:33.302Z,2.30
2023-04-04T13:16:00.790Z,2.50
2023-04-04T13:18:29.692Z,2.57
2023-04-04T13:20:57.023Z,2.40
2023-04-04T13:23:24.375Z,2.30
2023-04-04T13:25:51.777Z,2.63
2023-04-04T13:28:19.151Z,2.90
2023-04-04T13:30:49.846Z,2.60
2023-04-04T13:33:18.136Z,2.47
2023-04-04T13:35:46.093Z,2.33
2023-04-04T13:38:13.738Z,2.20
2023-04-04T13:40:41.620Z,2.80
2023-04-04T13:43:11.189Z,2.70
2023-04-04T13:45:38.903Z,2.43
2023-04-04T13:48:06.433Z,2.53
2023-04-04T13:50:35.213Z,2.80
2023-04-04T13:53:02.572Z,2.70
2023-04-04T13:55:29.881Z,2.60
2023-04-04T13:57:57.236Z,2.67
2023-04-04T14:00:25.627Z,2.80
2023-04-04T14:02:55.644Z,2.50
2023-04-04T14:05:22.240Z,3.00
2023-04-04T14:07:49.909Z,2.83
2023-04-04T14:10:17.218Z,3.10
2023-04-04T14:12:44.608Z,2.90
2023-04-04T14:15:12.081Z,3.00
2023-04-04T14:17:39.699Z,2.80
2023-04-04T14:20:07.699Z,2.80
2023-04-04T14:22:35.228Z,3.17
2023-04-04T14:25:02.593Z,2.30
2023-04-04T14:27:29.898Z,2.93
2023-04-04T14:29:57.317Z,2.73
2023-04-04T14:32:25.774Z,2.90
2023-04-04T14:34:53.106Z,2.90
2023-04-04T14:37:20.480Z,2.87
2023-04-04T14:39:47.852Z,3.40
2023-04-04T14:42:15.210Z,2.87
2023-04-04T14:44:42.566Z,3.43
2023-04-04T14:47:09.985Z,3.30
2023-04-04T14:49:37.629Z,3.07
2023-04-04T14:52:05.070Z,3.30
2023-04-04T14:54:32.412Z,2.80
2023-04-04T14:57:00.389Z,2.93
2023-04-04T14:59:27.869Z,3.17
2023-04-04T15:01:55.517Z,3.27
2023-04-04T15:04:22.863Z,3.20
2023-04-04T15:06:50.742Z,3.20
2023-04-04T15:09:18.097Z,3.33
2023-04-04T15:11:45.405Z,3.13
2023-04-04T15:14:12.716Z,3.60
2023-04-04T15:16:40.116Z,3.27
2023-04-04T15:19:09.467Z,3.40
2023-04-04T15:21:37.005Z,3.50
2023-04-04T15:24:04.381Z,3.60
2023-04-04T15:26:32.031Z,3.50
2023-04-04T15:28:59.329Z,3.33
2023-04-04T15:31:26.740Z,3.50
2023-04-04T15:33:55.720Z,3.23
2023-04-04T15:36:24.755Z,3.10
2023-04-04T15:38:52.129Z,4.60
2023-04-04T15:41:19.488Z,4.47
2023-04-04T15:43:46.848Z,3.50
2023-04-04T15:46:14.211Z,3.73
2023-04-04T15:48:41.623Z,4.97
2023-04-04T15:51:08.930Z,4.07
2023-04-04T15:53:36.286Z,3.80
2023-04-04T15:56:03.664Z,3.83
2023-04-04T15:58:31.026Z,4.20
2023-04-04T16:00:58.400Z,3.90
2023-04-04T16:03:25.882Z,4.27
2023-04-04T16:05:53.430Z,4.03
2023-04-04T16:08:20.840Z,4.07
2023-04-04T16:10:48.161Z,3.70
2023-04-04T16:13:15.511Z,4.43
2023-04-04T16:15:42.992Z,4.50
2023-04-04T16:18:11.397Z,3.73
2023-04-04T16:20:38.992Z,4.30
2023-04-04T16:23:07.043Z,4.30
2023-04-04T16:25:34.333Z,4.20
2023-04-04T16:28:01.702Z,3.67
2023-04-04T16:30:29.010Z,4.00
2023-04-04T16:32:56.520Z,3.57
2023-04-04T16:35:23.939Z,3.73
2023-04-04T16:37:51.407Z,3.53
2023-04-04T16:40:18.854Z,4.00
2023-04-04T16:42:46.342Z,5.07
2023-04-04T16:45:13.723Z,4.80
2023-04-04T16:47:41.115Z,4.00
2023-04-04T16:50:08.524Z,4.30
2023-04-04T16:52:35.891Z,3.70
2023-04-04T16:55:03.286Z,4.67
2023-04-04T16:57:30.646Z,4.60
2023-04-04T16:59:58.025Z,5.53
2023-04-04T17:02:25.424Z,5.13
2023-04-04T17:04:52.994Z,3.37
2023-04-04T17:07:20.895Z,3.07
2023-04-04T17:09:48.852Z,3.30
2023-04-04T17:12:16.437Z,3.73
2023-04-04T17:14:44.160Z,5.07
2023-04-04T17:17:11.532Z,3.70
2023-04-04T17:19:38.832Z,4.17
2023-04-04T17:22:06.564Z,3.63
2023-04-04T17:24:33.856Z,5.20
2023-04-04T17:27:02.076Z,3.60
2023-04-04T17:29:29.433Z,3.10
2023-04-04T17:31:57.355Z,3.30
2023-04-04T17:34:24.716Z,3.20
2023-04-04T17:36:53.233Z,3.40
2023-04-04T17:39:20.632Z,2.67
2023-04-04T17:41:48.015Z,2.80
2023-04-04T17:44:15.790Z,3.20
2023-04-04T17:46:43.159Z,3.13
2023-04-04T17:49:10.511Z,3.43
2023-04-04T17:51:37.882Z,3.27
2023-04-04T17:54:06.405Z,3.10
2023-04-04T17:56:33.798Z,2.80
2023-04-04T17:59:01.455Z,3.43
2023-04-04T18:01:29.235Z,3.00
2023-04-04T18:03:57.763Z,2.90
2023-04-04T18:06:26.560Z,3.50
2023-04-04T18:08:54.990Z,3.27
2023-04-04T18:11:22.741Z,3.80
2023-04-04T18:13:50.273Z,3.10
2023-04-04T18:16:17.662Z,3.63
2023-04-04T18:18:44.997Z,3.83
2023-04-04T18:21:12.873Z,3.70
2023-04-04T18:23:40.411Z,3.87
2023-04-04T18:26:08.598Z,3.60
2023-04-04T18:28:35.946Z,3.30
2023-04-04T18:31:03.343Z,3.67
2023-04-04T18:33:30.845Z,3.93
2023-04-04T18:35:59.742Z,4.07
2023-04-04T18:38:27.888Z,4.00
2023-04-04T18:40:58.014Z,3.87
2023-04-04T18:43:25.534Z,3.70
2023-04-04T18:45:54.676Z,4.93
2023-04-04T18:48:23.820Z,4.07
2023-04-04T18:50:51.853Z,4.13
2023-04-04T18:53:19.232Z,3.70
2023-04-04T18:55:48.234Z,3.70
2023-04-04T18:58:15.805Z,3.77
2023-04-04T19:00:43.271Z,3.60
2023-04-04T19:03:13.030Z,3.90
2023-04-04T19:05:39.917Z,3.73
2023-04-04T19:08:11.175Z,4.07
2023-04-04T19:10:39.507Z,3.70
2023-04-04T19:13:07.160Z,4.17
2023-04-04T19:15:34.777Z,4.17
2023-04-04T19:18:02.311Z,4.30
2023-04-04T19:20:29.677Z,3.53
2023-04-04T19:22:57.031Z,3.63
2023-04-04T19:25:24.420Z,3.67
2023-04-04T19:27:51.770Z,4.10
2023-04-04T19:30:37.448Z,3.70
2023-04-04T19:33:06.517Z,4.03
2023-04-04T19:35:51.789Z,3.80
2023-04-04T19:38:20.643Z,4.17
2023-04-04T19:40:48.584Z,4.13
2023-04-04T19:43:22.380Z,4.30
2023-04-04T19:45:50.690Z,4.10
2023-04-04T19:48:36.316Z,3.80
2023-04-04T19:51:07.832Z,4.00
2023-04-04T19:53:35.194Z,3.27
2023-04-04T19:56:04.013Z,3.17
2023-04-04T19:58:31.317Z,3.30
2023-04-04T20:00:58.609Z,4.03
2023-04-04T20:03:34.913Z,3.60
2023-04-04T20:06:04.749Z,3.83
2023-04-04T20:08:34.014Z,3.50
2023-04-04T20:11:01.313Z,3.80
2023-04-04T20:13:28.620Z,4.00
2023-04-04T20:16:01.670Z,3.73
2023-04-04T20:18:31.111Z,3.90
2023-04-04T20:21:15.216Z,4.23
2023-04-04T20:23:45.272Z,3.67
2023-04-04T20:26:16.098Z,4.10
2023-04-04T20:28:46.655Z,4.60
2023-04-04T20:31:15.642Z,4.10
2023-04-04T20:33:42.936Z,4.23
2023-04-04T20:36:11.130Z,4.23
2023-04-04T20:38:39.439Z,4.07
2023-04-04T20:41:08.314Z,4.50
2023-04-04T20:43:35.656Z,3.87
2023-04-04T20:46:03.010Z,4.13
2023-04-04T20:48:40.224Z,4.50
2023-04-04T20:51:26.996Z,4.10
2023-04-04T20:53:55.929Z,3.93
2023-04-04T20:56:39.545Z,4.47
2023-04-04T20:59:07.354Z,4.20
2023-04-04T21:01:34.803Z,4.77
2023-04-04T21:04:02.282Z,4.30
2023-04-04T21:06:30.936Z,4.07
2023-04-04T21:08:58.296Z,4.20
2023-04-04T21:11:28.727Z,3.97
2023-04-04T21:13:56.681Z,4.50
2023-04-04T21:16:25.593Z,4.17
2023-04-04T21:18:54.617Z,4.73
2023-04-04T21:21:21.965Z,4.80
2023-04-04T21:23:53.335Z,5.10
2023-04-04T21:26:22.512Z,4.47
2023-04-04T21:28:50.487Z,4.30
2023-04-04T21:31:18.663Z,4.37
2023-04-04T21:33:46.698Z,4.83
2023-04-04T21:36:27.569Z,4.53
2023-04-04T21:38:55.833Z,4.70
2023-04-04T21:41:33.116Z,4.87
2023-04-04T21:44:01.469Z,4.80
2023-04-04T21:46:30.749Z,4.90
2023-04-04T21:48:58.180Z,5.30
2023-04-04T21:51:26.206Z,4.80
2023-04-04T21:53:53.877Z,5.03
2023-04-04T21:56:22.403Z,4.83
2023-04-04T21:58:50.532Z,4.70
2023-04-04T22:01:18.381Z,5.40
2023-04-04T22:03:46.023Z,5.50
2023-04-04T22:06:13.457Z,5.43
2023-04-04T22:08:41.170Z,5.27
2023-04-04T22:11:10.162Z,5.07
2023-04-04T22:13:39.129Z,5.30
2023-04-04T22:16:06.845Z,5.33
2023-04-04T22:18:34.197Z,5.40
2023-04-04T22:21:04.800Z,5.17
2023-04-04T22:23:35.524Z,5.60
2023-04-04T22:26:05.061Z,5.10
2023-04-04T22:28:35.809Z,5.33
2023-04-04T22:31:03.235Z,4.70
2023-04-04T22:33:30.624Z,5.60
2023-04-04T22:35:59.035Z,5.60
2023-04-04T22:38:26.743Z,4.83
2023-04-04T22:40:54.812Z,5.20
2023-04-04T22:43:22.447Z,5.23
2023-04-04T22:45:50.036Z,5.57
2023-04-04T22:48:17.447Z,5.50
2023-04-04T22:50:45.255Z,5.20
2023-04-04T22:53:15.676Z,5.20
2023-04-04T22:55:43.033Z,5.80
2023-04-04T22:58:10.365Z,4.90
2023-04-04T23:00:37.728Z,5.27
2023-04-04T23:03:06.065Z,4.60
2023-04-04T23:05:33.378Z,5.00
2023-04-04T23:08:03.292Z,4.67
2023-04-04T23:10:30.657Z,4.50
2023-04-04T23:12:58.112Z,5.00
2023-04-04T23:15:27.236Z,4.70
2023-04-04T23:17:54.841Z,5.10
2023-04-04T23:20:23.843Z,5.23
2023-04-04T23:22:51.384Z,5.20
2023-04-04T23:25:18.760Z,5.23
2023-04-04T23:27:46.200Z,4.83
2023-04-04T23:30:13.567Z,4.90
2023-04-04T23:32:41.971Z,4.87
2023-04-04T23:35:09.566Z,5.77
2023-04-04T23:37:36.949Z,5.00
2023-04-04T23:40:05.753Z,5.30
2023-04-04T23:42:33.142Z,5.30
2023-04-04T23:45:01.972Z,5.13
2023-04-04T23:47:29.419Z,5.27
2023-04-04T23:49:56.796Z,5.40
2023-04-04T23:52:24.119Z,4.50
2023-04-04T23:54:51.429Z,5.70
2023-04-04T23:57:18.733Z,5.70
2023-04-04T23:59:46.104Z,5.60
